Takatsuki, Japan
Current Conditions -  °F | °C
As of 10:00 AM on Saturday 25 Oct 2014 (Local Time) from RJOO Reporting Station
Broken Clouds Broken Clouds  
Wind Chill: 64°   Ceiling: 15000
Heat Index: 64°   Visibility: 6mi
Dew Point: 54°   Wind: 9mph
Humidity: 68%   Direction: 80°E
Pressure: 30.18"   Gusts: NA
Location:  34.85°N, 135.62°E
Report Text: RJOO 250100Z 08008KT 040V110 9999 FEW035 SCT100 BKN150 18/12 Q1022
Loading
Personal Weather Stations






























Interactive Weather Map
Tropical Storm Tracking
New forecast layout! Learn more

10-Day Weather Forecast

Advertisements
Track Severe Weather on mobile